Time,TemperatureF,DewpointF,PressureIn,WindDirection,WindDirectionDegrees,WindSpeedMPH,WindSpeedGustMPH,Humidity,HourlyPrecipIn,Conditions,Clouds,dailyrainin,SolarRadiationWatts/m^2,SoftwareType,DateUTC
2013-07-14 00:02:00,71.0,64.0,-100.00,SE,132,2.0,7.0,79,0.00,,,0.00,0.000000,,2013-07-14 04:02:00,
2013-07-14 00:32:00,69.0,64.0,-100.00,SE,134,2.0,4.0,84,0.00,,,0.00,0.000000,,2013-07-14 04:32:00,
2013-07-14 00:42:00,69.0,64.0,-100.00,SE,134,2.0,4.0,84,0.00,,,0.00,0.000000,,2013-07-14 04:42:00,
2013-07-14 00:54:00,69.0,64.0,-100.00,SE,134,2.0,4.0,84,0.00,,,0.00,0.000000,,2013-07-14 04:54:00,
2013-07-14 01:02:00,69.0,64.0,-100.00,SE,134,2.0,4.0,84,0.00,,,0.00,0.000000,,2013-07-14 05:02:00,
2013-07-14 01:32:00,69.0,64.0,-100.00,South,171,2.0,5.0,85,0.00,,,0.00,0.000000,,2013-07-14 05:32:00,
2013-07-14 01:43:00,69.0,64.0,-100.00,South,171,2.0,5.0,85,0.00,,,0.00,0.000000,,2013-07-14 05:43:00,
2013-07-14 01:53:00,69.0,64.0,-100.00,South,171,2.0,5.0,85,0.00,,,0.00,0.000000,,2013-07-14 05:53:00,
2013-07-14 02:01:00,69.0,64.0,-100.00,South,171,2.0,5.0,85,0.00,,,0.00,0.000000,,2013-07-14 06:01:00,
2013-07-14 02:32:00,68.0,65.0,-100.00,ENE,66,2.0,3.0,90,0.00,,,0.00,0.000000,,2013-07-14 06:32:00,
2013-07-14 02:42:00,68.0,65.0,-100.00,ENE,66,2.0,3.0,90,0.00,,,0.00,0.000000,,2013-07-14 06:42:00,
2013-07-14 02:53:00,68.0,65.0,-100.00,ENE,66,2.0,3.0,90,0.00,,,0.00,0.000000,,2013-07-14 06:53:00,
2013-07-14 03:02:00,68.0,65.0,-100.00,ENE,66,2.0,3.0,90,0.00,,,0.00,0.000000,,2013-07-14 07:02:00,
2013-07-14 03:33:00,68.0,66.0,-100.00,SSE,163,2.0,4.0,92,0.00,,,0.00,0.000000,,2013-07-14 07:33:00,
2013-07-14 03:43:00,68.0,66.0,-100.00,SSE,163,2.0,4.0,92,0.00,,,0.00,0.000000,,2013-07-14 07:43:00,
2013-07-14 03:53:00,68.0,66.0,-100.00,SSE,163,2.0,4.0,92,0.00,,,0.00,0.000000,,2013-07-14 07:53:00,
2013-07-14 04:01:00,68.0,66.0,-100.00,SSE,163,2.0,4.0,92,0.00,,,0.00,0.000000,,2013-07-14 08:01:00,
2013-07-14 04:32:00,67.0,65.0,-100.00,ENE,58,2.0,4.0,94,0.02,,,0.02,0.000000,,2013-07-14 08:32:00,
2013-07-14 04:42:00,67.0,65.0,-100.00,ENE,58,2.0,4.0,94,0.02,,,0.02,0.000000,,2013-07-14 08:42:00,
2013-07-14 04:53:00,67.0,65.0,-100.00,ENE,58,2.0,4.0,94,0.02,,,0.02,0.000000,,2013-07-14 08:53:00,
2013-07-14 05:01:00,67.0,65.0,-100.00,ENE,58,2.0,4.0,94,0.02,,,0.02,0.000000,,2013-07-14 09:01:00,
2013-07-14 05:32:00,67.0,66.0,-100.00,East,87,1.0,4.0,97,0.00,,,0.02,0.000000,,2013-07-14 09:32:00,
2013-07-14 05:42:00,67.0,66.0,-100.00,East,87,1.0,4.0,97,0.00,,,0.02,0.000000,,2013-07-14 09:42:00,
2013-07-14 05:53:00,67.0,66.0,-100.00,East,87,1.0,4.0,97,0.00,,,0.02,0.000000,,2013-07-14 09:53:00,
2013-07-14 06:01:00,67.0,66.0,-100.00,East,87,1.0,4.0,97,0.00,,,0.02,0.000000,,2013-07-14 10:01:00,
2013-07-14 06:32:00,67.0,66.0,-100.00,ESE,111,2.0,4.0,97,0.02,,,0.04,0.000000,,2013-07-14 10:32:00,
2013-07-14 06:42:00,67.0,66.0,-100.00,ESE,111,2.0,4.0,97,0.02,,,0.04,0.000000,,2013-07-14 10:42:00,
2013-07-14 06:53:00,67.0,66.0,-100.00,ESE,111,2.0,4.0,97,0.02,,,0.04,0.000000,,2013-07-14 10:53:00,
2013-07-14 07:02:00,67.0,66.0,-100.00,ESE,111,2.0,4.0,97,0.02,,,0.04,0.000000,,2013-07-14 11:02:00,
2013-07-14 07:32:00,67.0,66.0,-100.00,SSE,164,2.0,4.0,97,0.00,,,0.04,3.000000,,2013-07-14 11:32:00,
2013-07-14 07:43:00,67.0,66.0,-100.00,SSE,164,2.0,4.0,97,0.00,,,0.04,3.000000,,2013-07-14 11:43:00,
2013-07-14 07:53:00,67.0,66.0,-100.00,SSE,164,2.0,4.0,97,0.00,,,0.04,3.000000,,2013-07-14 11:53:00,
2013-07-14 08:02:00,67.0,66.0,-100.00,SSE,164,2.0,4.0,97,0.00,,,0.04,3.000000,,2013-07-14 12:02:00,
2013-07-14 08:33:00,70.0,69.0,-100.00,SSE,148,2.0,3.0,97,0.00,,,0.04,88.000000,,2013-07-14 12:33:00,
2013-07-14 08:43:00,70.0,69.0,-100.00,SSE,148,2.0,3.0,97,0.00,,,0.04,88.000000,,2013-07-14 12:43:00,
2013-07-14 08:53:00,70.0,69.0,-100.00,SSE,148,2.0,3.0,97,0.00,,,0.04,88.000000,,2013-07-14 12:53:00,
2013-07-14 09:01:00,70.0,69.0,-100.00,SSE,148,2.0,3.0,97,0.00,,,0.04,88.000000,,2013-07-14 13:01:00,
2013-07-14 09:32:00,72.0,69.0,-100.00,SE,136,3.0,5.0,91,0.00,,,0.04,183.000000,,2013-07-14 13:32:00,
2013-07-14 09:42:00,72.0,69.0,-100.00,SE,136,3.0,5.0,91,0.00,,,0.04,183.000000,,2013-07-14 13:42:00,
2013-07-14 09:53:00,72.0,69.0,-100.00,SE,136,3.0,5.0,91,0.00,,,0.04,183.000000,,2013-07-14 13:53:00,
2013-07-14 10:02:00,72.0,69.0,-100.00,SE,136,3.0,5.0,91,0.00,,,0.04,183.000000,,2013-07-14 14:02:00,
2013-07-14 10:33:00,72.0,69.0,-100.00,SSE,168,3.0,6.0,90,0.00,,,0.04,154.000000,,2013-07-14 14:33:00,
2013-07-14 10:43:00,72.0,69.0,-100.00,SSE,168,3.0,6.0,90,0.00,,,0.04,154.000000,,2013-07-14 14:43:00,
2013-07-14 10:53:00,72.0,69.0,-100.00,SSE,168,3.0,6.0,90,0.00,,,0.04,154.000000,,2013-07-14 14:53:00,
2013-07-14 11:01:00,72.0,69.0,-100.00,SSE,168,3.0,6.0,90,0.00,,,0.04,154.000000,,2013-07-14 15:01:00,
2013-07-14 11:32:00,77.0,72.0,-100.00,East,100,4.0,8.0,84,0.00,,,0.04,375.000000,,2013-07-14 15:32:00,
2013-07-14 11:42:00,77.0,72.0,-100.00,East,100,4.0,8.0,84,0.00,,,0.04,375.000000,,2013-07-14 15:42:00,
2013-07-14 11:53:00,77.0,72.0,-100.00,East,100,4.0,8.0,84,0.00,,,0.04,375.000000,,2013-07-14 15:53:00,
2013-07-14 12:01:00,77.0,72.0,-100.00,East,100,4.0,8.0,84,0.00,,,0.04,375.000000,,2013-07-14 16:01:00,
2013-07-14 12:32:00,76.0,68.0,-100.00,ESE,117,5.0,11.0,77,0.00,,,0.04,459.000000,,2013-07-14 16:32:00,
2013-07-14 12:43:00,76.0,68.0,-100.00,ESE,117,5.0,11.0,77,0.00,,,0.04,459.000000,,2013-07-14 16:43:00,
2013-07-14 12:54:00,76.0,68.0,-100.00,ESE,117,5.0,11.0,77,0.00,,,0.04,459.000000,,2013-07-14 16:54:00,
2013-07-14 13:02:00,76.0,68.0,-100.00,ESE,117,5.0,11.0,77,0.00,,,0.04,459.000000,,2013-07-14 17:02:00,
2013-07-14 13:32:00,78.0,68.0,-100.00,SE,136,5.0,12.0,71,0.00,,,0.04,507.000000,,2013-07-14 17:32:00,
2013-07-14 13:43:00,78.0,68.0,-100.00,SE,136,5.0,12.0,71,0.00,,,0.04,507.000000,,2013-07-14 17:43:00,
2013-07-14 13:53:00,78.0,68.0,-100.00,SE,136,5.0,12.0,71,0.00,,,0.04,507.000000,,2013-07-14 17:53:00,
2013-07-14 14:01:00,78.0,68.0,-100.00,SE,136,5.0,12.0,71,0.00,,,0.04,507.000000,,2013-07-14 18:01:00,
2013-07-14 14:32:00,79.0,69.0,-100.00,SE,127,6.0,14.0,72,0.00,,,0.04,762.000000,,2013-07-14 18:32:00,
2013-07-14 14:42:00,79.0,69.0,-100.00,SE,127,6.0,14.0,72,0.00,,,0.04,762.000000,,2013-07-14 18:42:00,
2013-07-14 14:52:00,79.0,69.0,-100.00,SE,127,6.0,14.0,72,0.00,,,0.04,762.000000,,2013-07-14 18:52:00,
2013-07-14 15:02:00,79.0,69.0,-100.00,SE,127,6.0,14.0,72,0.00,,,0.04,762.000000,,2013-07-14 19:02:00,
2013-07-14 15:32:00,77.0,68.0,-100.00,SSE,150,8.0,16.0,74,0.00,,,0.04,605.000000,,2013-07-14 19:32:00,
2013-07-14 15:43:00,77.0,68.0,-100.00,SSE,150,8.0,16.0,74,0.00,,,0.04,605.000000,,2013-07-14 19:43:00,
2013-07-14 15:53:00,77.0,68.0,-100.00,SSE,150,8.0,16.0,74,0.00,,,0.04,605.000000,,2013-07-14 19:53:00,
2013-07-14 16:02:00,77.0,68.0,-100.00,SSE,150,8.0,16.0,74,0.00,,,0.04,605.000000,,2013-07-14 20:02:00,
2013-07-14 16:32:00,72.0,68.0,-100.00,SE,131,4.0,15.0,86,0.03,,,0.07,214.000000,,2013-07-14 20:32:00,
2013-07-14 16:43:00,72.0,68.0,-100.00,SE,131,4.0,15.0,86,0.03,,,0.07,214.000000,,2013-07-14 20:43:00,
2013-07-14 16:53:00,72.0,68.0,-100.00,SE,131,4.0,15.0,86,0.03,,,0.07,214.000000,,2013-07-14 20:53:00,
2013-07-14 17:02:00,72.0,68.0,-100.00,SE,131,4.0,15.0,86,0.03,,,0.07,214.000000,,2013-07-14 21:02:00,
2013-07-14 17:32:00,73.0,70.0,-100.00,SE,126,4.0,10.0,89,0.02,,,0.09,258.000000,,2013-07-14 21:32:00,
2013-07-14 17:43:00,73.0,70.0,-100.00,SE,126,4.0,10.0,89,0.02,,,0.09,258.000000,,2013-07-14 21:43:00,
2013-07-14 17:53:00,73.0,70.0,-100.00,SE,126,4.0,10.0,89,0.02,,,0.09,258.000000,,2013-07-14 21:53:00,
2013-07-14 18:01:00,73.0,70.0,-100.00,SE,126,4.0,10.0,89,0.02,,,0.09,258.000000,,2013-07-14 22:01:00,
2013-07-14 18:32:00,74.0,68.0,-100.00,SE,124,3.0,12.0,82,0.01,,,0.10,195.000000,,2013-07-14 22:32:00,
2013-07-14 18:42:00,74.0,68.0,-100.00,SE,124,3.0,12.0,82,0.01,,,0.10,195.000000,,2013-07-14 22:42:00,
2013-07-14 18:53:00,74.0,68.0,-100.00,SE,124,3.0,12.0,82,0.01,,,0.10,195.000000,,2013-07-14 22:53:00,
2013-07-14 19:01:00,74.0,68.0,-100.00,SE,124,3.0,12.0,82,0.01,,,0.10,195.000000,,2013-07-14 23:01:00,
2013-07-14 19:32:00,76.0,69.0,-100.00,SSE,148,7.0,16.0,78,0.00,,,0.10,160.000000,,2013-07-14 23:32:00,
2013-07-14 19:42:00,76.0,69.0,-100.00,SSE,148,7.0,16.0,78,0.00,,,0.10,160.000000,,2013-07-14 23:42:00,
2013-07-14 19:53:00,76.0,69.0,-100.00,SSE,148,7.0,16.0,78,0.00,,,0.10,160.000000,,2013-07-14 23:53:00,
2013-07-14 20:02:00,76.0,69.0,-100.00,SSE,148,7.0,16.0,78,0.00,,,0.10,160.000000,,2013-07-15 00:02:00,
2013-07-14 20:32:00,72.0,68.0,-100.00,SE,139,5.0,15.0,88,0.00,,,0.10,73.000000,,2013-07-15 00:32:00,
2013-07-14 20:43:00,72.0,68.0,-100.00,SE,139,5.0,15.0,88,0.00,,,0.10,73.000000,,2013-07-15 00:43:00,
2013-07-14 20:53:00,72.0,68.0,-100.00,SE,139,5.0,15.0,88,0.00,,,0.10,73.000000,,2013-07-15 00:53:00,
2013-07-14 21:01:00,72.0,68.0,-100.00,SE,139,5.0,15.0,88,0.00,,,0.10,73.000000,,2013-07-15 01:01:00,
2013-07-14 21:32:00,72.0,65.0,-100.00,SE,132,7.0,18.0,80,0.00,,,0.10,21.000000,,2013-07-15 01:32:00,
2013-07-14 21:43:00,72.0,65.0,-100.00,SE,132,7.0,18.0,80,0.00,,,0.10,21.000000,,2013-07-15 01:43:00,
2013-07-14 21:53:00,72.0,65.0,-100.00,SE,132,7.0,18.0,80,0.00,,,0.10,21.000000,,2013-07-15 01:53:00,
2013-07-14 22:02:00,72.0,65.0,-100.00,SE,132,7.0,18.0,80,0.00,,,0.10,21.000000,,2013-07-15 02:02:00,
2013-07-14 22:32:00,73.0,66.0,-100.00,ESE,117,5.0,14.0,78,0.00,,,0.10,0.000000,,2013-07-15 02:32:00,
2013-07-14 22:42:00,73.0,66.0,-100.00,ESE,117,5.0,14.0,78,0.00,,,0.10,0.000000,,2013-07-15 02:42:00,
2013-07-14 22:53:00,73.0,66.0,-100.00,ESE,117,5.0,14.0,78,0.00,,,0.10,0.000000,,2013-07-15 02:53:00,
2013-07-14 23:02:00,73.0,66.0,-100.00,ESE,117,5.0,14.0,78,0.00,,,0.10,0.000000,,2013-07-15 03:02:00,
2013-07-14 23:32:00,72.0,64.0,-100.00,SSE,152,6.0,16.0,77,0.00,,,0.10,0.000000,,2013-07-15 03:32:00,
2013-07-14 23:43:00,72.0,64.0,-100.00,SSE,152,6.0,16.0,77,0.00,,,0.10,0.000000,,2013-07-15 03:43:00,
2013-07-14 23:53:00,72.0,64.0,-100.00,SSE,152,6.0,16.0,77,0.00,,,0.10,0.000000,,2013-07-15 03:53:00,